Pearl River — WDD7486 — position and weather

sailwx.info

Track history (hours):
 
Tides and Currents Weather Stations Pressure Air Temp Water Temp Dewpoint Dewpoint Depression Visibility Wind Speed Wind Dir Waves Ship Positions

Pearl River

Owner: Great Lakes Dredge & Dock Company, LLC., Oak Brook, IL. More information available from US FCC via Universal Licensing System and Coast Guard Vessel Documentation Center.

Last reported at 2018-Jun-19 11:31 UTC. Time now 2018-Jun-19 16:20 UTC.
Position N 32°44' W 079°51'.

MMSI: 367187120.

Date/timePositionNaut miles runAvg speedWind from/ knotsBaromVisibWave heightAir tempDewpointWater temp
2018-Jun-19 11:31N 32°44' W 079°51'121.3
2018-Jun-19 11:28N 32°45' W 079°52'4 0.3
2018-Jun-18 22:29N 32°48' W 079°55'4 0.4
2018-Jun-18 13:00N 32°45' W 079°52'5 4.4
2018-Jun-18 11:47N 32°49' W 079°56'5 3.3
2018-Jun-18 10:18N 32°46' W 079°52'4 0.2
2018-Jun-17 19:44N 32°48' W 079°55'4 0.5
2018-Jun-17 11:42N 32°45' W 079°52'315.9
2018-Jun-17 11:30N 32°47' W 079°55'2 0.1
2018-Jun-16 20:16N 32°48' W 079°55'4 0.5
2018-Jun-16 11:42N 32°45' W 079°52'316.8
2018-Jun-16 11:31N 32°47' W 079°55'1 0.1
2018-Jun-15 20:39N 32°49' W 079°56'110.0
2018-Jun-15 20:30N 32°47' W 079°55'3 0.5
2018-Jun-15 14:24N 32°46' W 079°52'512.7
2018-Jun-15 14:00N 32°50' W 079°56'1 0.6
2018-Jun-15 11:40N 32°48' W 079°55'4 2.7
2018-Jun-15 10:21N 32°46' W 079°52'3 0.2
2018-Jun-14 20:05N 32°48' W 079°55'217.0
2018-Jun-14 20:00N 32°47' W 079°54'2 0.3
2018-Jun-14 14:33N 32°46' W 079°52'119.3
2018-Jun-14 14:30N 32°46' W 079°53'2 0.1
2018-Jun-13 19:02N 32°48' W 079°55'015.5
2018-Jun-13 19:00N 32°48' W 079°55'4 1.0
2018-Jun-13 14:51N 32°45' W 079°51'2 4.6
2018-Jun-13 14:30N 32°46' W 079°53'1 1.6
2018-Jun-13 13:59N 32°46' W 079°53'0 0.9
2018-Jun-13 13:29N 32°46' W 079°53'0 0.8
2018-Jun-13 13:00N 32°46' W 079°53'1 2.6
2018-Jun-13 12:29N 32°45' W 079°54'1 2.3
2018-Jun-13 12:00N 32°46' W 079°54'0 0.4
2018-Jun-13 11:31N 32°46' W 079°54'4 0.3
2018-Jun-12 20:44N 32°49' W 079°56'415.4
2018-Jun-12 20:30N 32°46' W 079°54'0 0.7
2018-Jun-12 20:00N 32°45' W 079°54'0 0.0
2018-Jun-12 19:30N 32°45' W 079°54'0 0.1
2018-Jun-12 18:56N 32°45' W 079°54'2 5.3
2018-Jun-12 18:30N 32°47' W 079°55'1 1.1
2018-Jun-12 17:33N 32°48' W 079°55'116.2
2018-Jun-12 17:30N 32°48' W 079°55'2 4.8
2018-Jun-12 17:00N 32°45' W 079°54'0 0.0
2018-Jun-12 16:28N 32°45' W 079°54'0 0.0
2018-Jun-12 14:53N 32°45' W 079°54'0 0.0
2018-Jun-12 14:19N 32°45' W 079°54'0 0.0
2018-Jun-12 13:25N 32°45' W 079°54'0 0.0
2018-Jun-12 12:01N 32°45' W 079°54'0 0.4
2018-Jun-12 11:47N 32°45' W 079°54'3 0.2
2018-Jun-11 19:16N 32°48' W 079°55'3 4.8
2018-Jun-11 18:41N 32°45' W 079°54'0 1.4
2018-Jun-11 18:30N 32°45' W 079°55'1 1.9
2018-Jun-11 17:58N 32°46' W 079°54'0 0.7
2018-Jun-11 17:25N 32°46' W 079°53'0 0.3
2018-Jun-11 16:57N 32°46' W 079°53'1 1.8
2018-Jun-11 16:28N 32°46' W 079°54'4 1.5
2018-Jun-11 13:58N 32°44' W 079°50'3 5.5
2018-Jun-11 13:30N 32°46' W 079°52'1 0.8
2018-Jun-11 12:12N 32°45' W 079°52'2 7.8
2018-Jun-11 11:59N 32°46' W 079°53'0 0.6
2018-Jun-11 11:29N 32°46' W 079°53'2 0.1
2018-Jun-10 19:48N 32°48' W 079°55'2 6.6
2018-Jun-10 19:30N 32°46' W 079°53'2 0.1
2018-Jun-09 18:48N 32°48' W 079°55'3 8.7
2018-Jun-09 18:28N 32°45' W 079°54'0 0.7
2018-Jun-09 18:00N 32°45' W 079°54'0 0.6
2018-Jun-09 17:29N 32°45' W 079°54'1 0.4
2018-Jun-09 15:36N 32°46' W 079°53'1 0.3
2018-Jun-09 12:23N 32°45' W 079°54'0 0.4
2018-Jun-09 11:57N 32°45' W 079°54'  
Track history (hours):
 
Tides and Currents Weather Stations Pressure Air Temp Water Temp Dewpoint Dewpoint Depression Visibility Wind Speed Wind Dir Waves Ship Positions

Pearl River

Owner: Great Lakes Dredge & Dock Company, LLC., Oak Brook, IL. More information available from US FCC via Universal Licensing System and Coast Guard Vessel Documentation Center.

Last reported at 2018-Jun-19 11:31 UTC. Time now 2018-Jun-19 16:20 UTC.
Position N 32°44' W 079°51'.

MMSI: 367187120.

Date/timePositionNaut miles runAvg speedWind from/ knotsBaromVisibWave heightAir tempDewpointWater temp
2018-Jun-19 11:31N 32°44' W 079°51'121.3
2018-Jun-19 11:28N 32°45' W 079°52'4 0.3
2018-Jun-18 22:29N 32°48' W 079°55'4 0.4
2018-Jun-18 13:00N 32°45' W 079°52'5 4.4
2018-Jun-18 11:47N 32°49' W 079°56'5 3.3
2018-Jun-18 10:18N 32°46' W 079°52'4 0.2
2018-Jun-17 19:44N 32°48' W 079°55'4 0.5
2018-Jun-17 11:42N 32°45' W 079°52'315.9
2018-Jun-17 11:30N 32°47' W 079°55'2 0.1
2018-Jun-16 20:16N 32°48' W 079°55'4 0.5
2018-Jun-16 11:42N 32°45' W 079°52'316.8
2018-Jun-16 11:31N 32°47' W 079°55'1 0.1
2018-Jun-15 20:39N 32°49' W 079°56'110.0
2018-Jun-15 20:30N 32°47' W 079°55'3 0.5
2018-Jun-15 14:24N 32°46' W 079°52'512.7
2018-Jun-15 14:00N 32°50' W 079°56'1 0.6
2018-Jun-15 11:40N 32°48' W 079°55'4 2.7
2018-Jun-15 10:21N 32°46' W 079°52'3 0.2
2018-Jun-14 20:05N 32°48' W 079°55'217.0
2018-Jun-14 20:00N 32°47' W 079°54'2 0.3
2018-Jun-14 14:33N 32°46' W 079°52'119.3
2018-Jun-14 14:30N 32°46' W 079°53'2 0.1
2018-Jun-13 19:02N 32°48' W 079°55'015.5
2018-Jun-13 19:00N 32°48' W 079°55'4 1.0
2018-Jun-13 14:51N 32°45' W 079°51'2 4.6
2018-Jun-13 14:30N 32°46' W 079°53'1 1.6
2018-Jun-13 13:59N 32°46' W 079°53'0 0.9
2018-Jun-13 13:29N 32°46' W 079°53'0 0.8
2018-Jun-13 13:00N 32°46' W 079°53'1 2.6
2018-Jun-13 12:29N 32°45' W 079°54'1 2.3
2018-Jun-13 12:00N 32°46' W 079°54'0 0.4
2018-Jun-13 11:31N 32°46' W 079°54'4 0.3
2018-Jun-12 20:44N 32°49' W 079°56'415.4
2018-Jun-12 20:30N 32°46' W 079°54'0 0.7
2018-Jun-12 20:00N 32°45' W 079°54'0 0.0
2018-Jun-12 19:30N 32°45' W 079°54'0 0.1
2018-Jun-12 18:56N 32°45' W 079°54'2 5.3
2018-Jun-12 18:30N 32°47' W 079°55'1 1.1
2018-Jun-12 17:33N 32°48' W 079°55'116.2
2018-Jun-12 17:30N 32°48' W 079°55'2 4.8
2018-Jun-12 17:00N 32°45' W 079°54'0 0.0
2018-Jun-12 16:28N 32°45' W 079°54'0 0.0
2018-Jun-12 14:53N 32°45' W 079°54'0 0.0
2018-Jun-12 14:19N 32°45' W 079°54'0 0.0
2018-Jun-12 13:25N 32°45' W 079°54'0 0.0
2018-Jun-12 12:01N 32°45' W 079°54'0 0.4
2018-Jun-12 11:47N 32°45' W 079°54'3 0.2
2018-Jun-11 19:16N 32°48' W 079°55'3 4.8
2018-Jun-11 18:41N 32°45' W 079°54'0 1.4
2018-Jun-11 18:30N 32°45' W 079°55'1 1.9
2018-Jun-11 17:58N 32°46' W 079°54'0 0.7
2018-Jun-11 17:25N 32°46' W 079°53'0 0.3
2018-Jun-11 16:57N 32°46' W 079°53'1 1.8
2018-Jun-11 16:28N 32°46' W 079°54'4 1.5
2018-Jun-11 13:58N 32°44' W 079°50'3 5.5
2018-Jun-11 13:30N 32°46' W 079°52'1 0.8
2018-Jun-11 12:12N 32°45' W 079°52'2 7.8
2018-Jun-11 11:59N 32°46' W 079°53'0 0.6
2018-Jun-11 11:29N 32°46' W 079°53'2 0.1
2018-Jun-10 19:48N 32°48' W 079°55'2 6.6
2018-Jun-10 19:30N 32°46' W 079°53'2 0.1
2018-Jun-09 18:48N 32°48' W 079°55'3 8.7
2018-Jun-09 18:28N 32°45' W 079°54'0 0.7
2018-Jun-09 18:00N 32°45' W 079°54'0 0.6
2018-Jun-09 17:29N 32°45' W 079°54'1 0.4
2018-Jun-09 15:36N 32°46' W 079°53'1 0.3
2018-Jun-09 12:23N 32°45' W 079°54'0 0.4
2018-Jun-09 11:57N 32°45' W 079°54'  

Dump ship's entire track history